createdAt,value
2023-05-08T00:04:47.960Z,14.70
2023-05-08T00:10:16.108Z,14.70
2023-05-08T00:15:44.373Z,14.70
2023-05-08T00:21:12.495Z,14.60
2023-05-08T00:26:42.076Z,14.60
2023-05-08T00:32:10.675Z,14.60
2023-05-08T00:37:40.845Z,14.50
2023-05-08T00:43:08.655Z,14.50
2023-05-08T00:48:37.326Z,14.40
2023-05-08T00:54:06.279Z,14.40
2023-05-08T00:59:36.740Z,14.40
2023-05-08T01:05:05.229Z,14.30
2023-05-08T01:10:51.641Z,14.20
2023-05-08T01:16:41.746Z,14.20
2023-05-08T01:22:33.639Z,14.10
2023-05-08T01:29:03.101Z,14.00
2023-05-08T01:34:40.114Z,14.00
2023-05-08T01:40:32.163Z,13.90
2023-05-08T01:46:06.564Z,13.90
2023-05-08T01:51:44.503Z,13.80
2023-05-08T01:57:14.258Z,13.70
2023-05-08T02:02:43.425Z,13.60
2023-05-08T02:08:14.288Z,13.50
2023-05-08T02:13:44.913Z,13.50
2023-05-08T02:19:15.162Z,13.40
2023-05-08T02:24:45.506Z,13.40
2023-05-08T02:30:16.093Z,13.30
2023-05-08T02:35:46.971Z,13.20
2023-05-08T02:41:18.745Z,13.20
2023-05-08T02:46:59.338Z,13.10
2023-05-08T02:52:49.145Z,13.00
2023-05-08T02:58:34.279Z,13.00
2023-05-08T03:04:09.064Z,12.90
2023-05-08T03:09:48.083Z,12.90
2023-05-08T03:15:26.186Z,12.90
2023-05-08T03:20:58.423Z,12.80
2023-05-08T03:26:26.900Z,12.80
2023-05-08T03:31:57.430Z,12.70
2023-05-08T03:37:28.763Z,12.60
2023-05-08T03:42:57.234Z,12.50
2023-05-08T03:48:27.695Z,12.40
2023-05-08T03:53:56.348Z,12.40
2023-05-08T04:00:00.136Z,12.30
2023-05-08T04:06:01.517Z,12.20
2023-05-08T04:11:42.735Z,12.10
2023-05-08T04:17:14.812Z,12.10
2023-05-08T04:22:45.630Z,12.10
2023-05-08T04:28:14.626Z,12.10
2023-05-08T04:33:47.099Z,12.10
2023-05-08T04:39:15.811Z,12.00
2023-05-08T04:44:44.104Z,12.00
2023-05-08T04:50:12.439Z,12.00
2023-05-08T04:55:41.002Z,12.00
2023-05-08T05:01:09.782Z,12.00
2023-05-08T05:06:39.218Z,11.90
2023-05-08T05:12:08.630Z,11.90
2023-05-08T05:17:37.284Z,11.90
2023-05-08T05:23:06.199Z,11.80
2023-05-08T05:28:34.703Z,11.80
2023-05-08T05:34:03.188Z,11.70
2023-05-08T05:39:31.518Z,11.60
2023-05-08T05:45:01.968Z,11.50
2023-05-08T05:50:32.239Z,11.50
2023-05-08T05:56:01.036Z,11.60
2023-05-08T06:01:29.968Z,11.50
2023-05-08T06:06:58.534Z,11.40
2023-05-08T06:12:28.397Z,11.40
2023-05-08T06:17:57.110Z,11.40
2023-05-08T06:23:25.891Z,11.50
2023-05-08T06:28:54.045Z,11.40
2023-05-08T06:34:22.073Z,11.40
2023-05-08T06:39:54.705Z,11.40
2023-05-08T06:45:32.308Z,11.50
2023-05-08T06:51:03.640Z,11.60
2023-05-08T06:56:31.821Z,11.80
2023-05-08T07:02:00.105Z,11.90
2023-05-08T07:07:28.683Z,12.10
2023-05-08T07:12:56.923Z,12.30
2023-05-08T07:18:25.832Z,12.40
2023-05-08T07:23:54.741Z,12.40
2023-05-08T07:29:22.959Z,12.60
2023-05-08T07:34:51.067Z,12.70
2023-05-08T07:40:20.235Z,12.80
2023-05-08T07:45:48.835Z,13.00
2023-05-08T07:51:18.193Z,13.00
2023-05-08T07:56:46.436Z,13.10
2023-05-08T08:02:14.926Z,13.20
2023-05-08T08:07:43.757Z,13.30
2023-05-08T08:13:12.092Z,13.40
2023-05-08T08:18:39.928Z,13.60
2023-05-08T08:24:08.425Z,13.80
2023-05-08T08:29:36.693Z,13.70
2023-05-08T08:35:05.671Z,13.60
2023-05-08T08:40:33.850Z,13.70
2023-05-08T08:46:14.756Z,13.70
2023-05-08T08:51:58.632Z,13.90
2023-05-08T08:57:29.029Z,14.20
2023-05-08T09:02:57.414Z,14.20
2023-05-08T09:08:26.028Z,14.30
2023-05-08T09:13:55.736Z,14.30
2023-05-08T09:19:26.333Z,14.60
2023-05-08T09:24:57.607Z,14.80
2023-05-08T09:30:25.472Z,14.90
2023-05-08T09:35:54.455Z,15.20
2023-05-08T09:41:24.138Z,15.20
2023-05-08T09:46:52.330Z,15.50
2023-05-08T09:52:21.916Z,15.90
2023-05-08T09:58:00.373Z,16.20
2023-05-08T10:03:50.052Z,16.10
2023-05-08T10:09:18.253Z,16.30
2023-05-08T10:14:46.913Z,16.60
2023-05-08T10:20:15.905Z,16.70
2023-05-08T10:25:48.827Z,16.80
2023-05-08T10:31:20.585Z,17.20
2023-05-08T10:36:48.947Z,17.10
2023-05-08T10:42:17.468Z,17.00
2023-05-08T10:48:11.871Z,16.90
2023-05-08T10:53:52.824Z,17.10
2023-05-08T10:59:21.204Z,17.20
2023-05-08T11:04:49.402Z,17.20
2023-05-08T11:10:17.523Z,17.30
2023-05-08T11:15:51.177Z,17.20
2023-05-08T11:21:22.484Z,17.20
2023-05-08T11:26:50.754Z,17.10
2023-05-08T11:32:18.967Z,17.10
2023-05-08T11:38:17.361Z,17.00
2023-05-08T11:44:22.072Z,16.90
2023-05-08T11:49:50.473Z,17.00
2023-05-08T11:55:20.129Z,17.10
2023-05-08T12:00:49.227Z,17.20
2023-05-08T12:06:19.377Z,17.30
2023-05-08T12:11:47.564Z,17.40
2023-05-08T12:17:19.102Z,17.40
2023-05-08T12:22:54.179Z,17.40
2023-05-08T12:28:23.102Z,17.70
2023-05-08T12:33:51.187Z,17.50
2023-05-08T12:39:20.004Z,17.60
2023-05-08T12:44:52.277Z,17.50
2023-05-08T12:50:21.893Z,17.50
2023-05-08T12:55:54.810Z,17.50
2023-05-08T13:01:23.043Z,17.70
2023-05-08T13:07:00.057Z,17.90
2023-05-08T13:12:28.284Z,17.80
2023-05-08T13:17:56.919Z,17.80
2023-05-08T13:23:25.505Z,17.80
2023-05-08T13:28:56.221Z,17.60
2023-05-08T13:34:25.644Z,17.60
2023-05-08T13:39:53.808Z,17.50
2023-05-08T13:45:22.398Z,17.40
2023-05-08T13:50:50.537Z,17.30
2023-05-08T13:56:18.415Z,17.20
2023-05-08T14:01:46.677Z,17.30
2023-05-08T14:07:14.729Z,17.40
2023-05-08T14:12:43.059Z,17.50
2023-05-08T14:18:11.300Z,17.40
2023-05-08T14:23:39.390Z,17.20
2023-05-08T14:29:07.474Z,17.10
2023-05-08T14:34:35.812Z,17.00
2023-05-08T14:40:04.306Z,16.90
2023-05-08T14:45:32.712Z,16.70
2023-05-08T14:51:01.037Z,16.70
2023-05-08T14:56:34.575Z,16.60
2023-05-08T15:02:08.993Z,16.60
2023-05-08T15:07:38.569Z,16.50
2023-05-08T15:13:07.652Z,16.50
2023-05-08T15:18:35.902Z,16.30
2023-05-08T15:24:04.064Z,16.20
2023-05-08T15:29:32.609Z,16.20
2023-05-08T15:35:00.810Z,16.10
2023-05-08T15:40:28.847Z,16.20
2023-05-08T15:45:56.928Z,16.20
2023-05-08T15:51:25.162Z,16.30
2023-05-08T15:56:53.472Z,16.30
2023-05-08T16:02:21.683Z,16.40
2023-05-08T16:07:51.767Z,16.50
2023-05-08T16:13:20.146Z,16.50
2023-05-08T16:18:48.497Z,16.50
2023-05-08T16:24:16.735Z,16.50
2023-05-08T16:29:44.980Z,16.50
2023-05-08T16:35:13.791Z,16.50
2023-05-08T16:40:42.305Z,16.40
2023-05-08T16:46:10.520Z,16.40
2023-05-08T16:51:38.490Z,16.30
2023-05-08T16:57:06.947Z,16.30
2023-05-08T17:02:35.260Z,16.10
2023-05-08T17:08:03.488Z,16.10
2023-05-08T17:13:31.719Z,15.90
2023-05-08T17:19:00.614Z,15.90
2023-05-08T17:24:30.765Z,15.70
2023-05-08T17:29:59.040Z,15.70
2023-05-08T17:35:27.378Z,15.60
2023-05-08T17:40:56.687Z,15.50
2023-05-08T17:46:24.837Z,15.40
2023-05-08T17:51:53.197Z,15.30
2023-05-08T17:57:23.509Z,15.30
2023-05-08T18:02:51.777Z,15.30
2023-05-08T18:08:20.234Z,15.20
2023-05-08T18:13:49.219Z,15.20
2023-05-08T18:19:17.857Z,15.10
2023-05-08T18:24:46.120Z,15.10
2023-05-08T18:30:14.461Z,15.10
2023-05-08T18:35:42.590Z,15.00
2023-05-08T18:41:10.793Z,15.00
2023-05-08T18:46:39.039Z,14.90
2023-05-08T18:52:07.184Z,14.80
2023-05-08T18:57:35.362Z,14.80
2023-05-08T19:03:04.633Z,14.70
2023-05-08T19:08:32.846Z,14.60
2023-05-08T19:14:01.069Z,14.60
2023-05-08T19:19:30.926Z,14.50
2023-05-08T19:24:59.324Z,14.40
2023-05-08T19:30:27.487Z,14.30
2023-05-08T19:35:55.779Z,14.30
2023-05-08T19:41:24.360Z,14.20
2023-05-08T19:46:52.478Z,14.10
2023-05-08T19:52:20.781Z,14.00
2023-05-08T19:57:49.139Z,13.90
2023-05-08T20:03:17.693Z,13.90
2023-05-08T20:08:46.203Z,13.80
2023-05-08T20:14:14.634Z,13.70
2023-05-08T20:19:43.003Z,13.60
2023-05-08T20:25:11.409Z,13.50
2023-05-08T20:30:39.758Z,13.50
2023-05-08T20:36:08.210Z,13.50
2023-05-08T20:41:36.497Z,13.40
2023-05-08T20:47:04.756Z,13.40
2023-05-08T20:52:33.740Z,13.30
2023-05-08T20:58:04.328Z,13.30
2023-05-08T21:03:32.741Z,13.20
2023-05-08T21:09:01.006Z,13.10
2023-05-08T21:14:29.328Z,13.10
2023-05-08T21:19:57.524Z,13.00
2023-05-08T21:25:25.953Z,13.00
2023-05-08T21:30:54.190Z,12.90
2023-05-08T21:36:22.482Z,12.90
2023-05-08T21:41:50.827Z,12.80
2023-05-08T21:47:19.557Z,12.80
2023-05-08T21:52:47.747Z,12.80
2023-05-08T21:58:16.128Z,12.70
2023-05-08T22:03:44.442Z,12.70
2023-05-08T22:09:12.612Z,12.60
2023-05-08T22:14:40.873Z,12.60
2023-05-08T22:20:14.501Z,12.50
2023-05-08T22:25:43.078Z,12.40
2023-05-08T22:31:12.512Z,12.30
2023-05-08T22:36:40.647Z,12.20
2023-05-08T22:42:08.937Z,12.10
2023-05-08T22:47:38.656Z,12.00
2023-05-08T22:53:08.229Z,12.00
2023-05-08T22:58:36.464Z,11.90
2023-05-08T23:04:04.611Z,11.70
2023-05-08T23:09:34.442Z,11.60
2023-05-08T23:15:02.977Z,11.50
2023-05-08T23:20:31.294Z,11.50
2023-05-08T23:26:04.988Z,11.30
2023-05-08T23:31:33.165Z,11.20
2023-05-08T23:37:02.763Z,11.10
2023-05-08T23:42:31.653Z,11.00
2023-05-08T23:48:00.270Z,11.00
2023-05-08T23:53:28.661Z,10.90
2023-05-08T23:58:56.915Z,10.80
